sensor_id;sensor_type;location;lat;lon;timestamp;pressure;altitude;pressure_sealevel;temperature;humidity
62152;BME280;48139;47.474;19.034;2023-04-25T03:45:31;99278.44;;;11.20;100.00
62152;BME280;48139;47.474;19.034;2023-04-25T03:48:34;99278.44;;;11.20;100.00
62152;BME280;48139;47.474;19.034;2023-04-25T03:51:38;99283.97;;;10.76;100.00
62152;BME280;48139;47.474;19.034;2023-04-25T03:54:41;99294.06;;;10.82;100.00
62152;BME280;48139;47.474;19.034;2023-04-25T03:57:44;99294.91;;;10.83;100.00
62152;BME280;48139;47.474;19.034;2023-04-25T04:00:48;99291.97;;;10.87;100.00
62152;BME280;48139;47.474;19.034;2023-04-25T04:03:51;99293.66;;;10.88;100.00
62152;BME280;48139;47.474;19.034;2023-04-25T04:06:54;99308.44;;;10.89;100.00
62152;BME280;48139;47.474;19.034;2023-04-25T04:09:59;99301.50;;;10.88;100.00
62152;BME280;48139;47.474;19.034;2023-04-25T04:13:01;99314.22;;;10.95;100.00
62152;BME280;48139;47.474;19.034;2023-04-25T04:16:04;99322.06;;;10.95;100.00
62152;BME280;48139;47.474;19.034;2023-04-25T04:19:07;99308.88;;;10.96;100.00
62152;BME280;48139;47.474;19.034;2023-04-25T04:22:11;99316.56;;;10.99;100.00
62152;BME280;48139;47.474;19.034;2023-04-25T04:25:13;99305.31;;;10.97;100.00
62152;BME280;48139;47.474;19.034;2023-04-25T04:28:18;99316.00;;;10.94;100.00
62152;BME280;48139;47.474;19.034;2023-04-25T04:31:22;99304.88;;;10.90;100.00
62152;BME280;48139;47.474;19.034;2023-04-25T04:34:25;99319.66;;;10.91;100.00
62152;BME280;48139;47.474;19.034;2023-04-25T04:37:29;99325.75;;;10.92;100.00
62152;BME280;48139;47.474;19.034;2023-04-25T04:40:32;99318.44;;;10.97;100.00
62152;BME280;48139;47.474;19.034;2023-04-25T04:43:35;99319.66;;;10.91;100.00
62152;BME280;48139;47.474;19.034;2023-04-25T04:46:39;99329.94;;;10.95;100.00
62152;BME280;48139;47.474;19.034;2023-04-25T04:49:44;99334.62;;;10.89;100.00
62152;BME280;48139;47.474;19.034;2023-04-25T04:52:50;99315.37;;;10.90;100.00
62152;BME280;48139;47.474;19.034;2023-04-25T04:55:54;99327.09;;;10.85;100.00
62152;BME280;48139;47.474;19.034;2023-04-25T04:58:58;99321.94;;;10.83;100.00
62152;BME280;48139;47.474;19.034;2023-04-25T05:02:00;99309.78;;;10.82;100.00
62152;BME280;48139;47.474;19.034;2023-04-25T05:05:08;99327.03;;;10.72;100.00
62152;BME280;48139;47.474;19.034;2023-04-25T05:08:10;99318.81;;;10.64;100.00
62152;BME280;48139;47.474;19.034;2023-04-25T05:11:14;99327.38;;;10.54;100.00
62152;BME280;48139;47.474;19.034;2023-04-25T05:14:17;99326.53;;;10.53;100.00
62152;BME280;48139;47.474;19.034;2023-04-25T05:17:20;99333.53;;;10.52;100.00
62152;BME280;48139;47.474;19.034;2023-04-25T05:20:25;99337.28;;;10.48;100.00
62152;BME280;48139;47.474;19.034;2023-04-25T05:23:29;99333.16;;;10.44;100.00
62152;BME280;48139;47.474;19.034;2023-04-25T05:26:34;99331.31;;;10.32;100.00
62152;BME280;48139;47.474;19.034;2023-04-25T05:29:37;99319.00;;;10.20;100.00
62152;BME280;48139;47.474;19.034;2023-04-25T05:32:40;99325.78;;;10.08;100.00
62152;BME280;48139;47.474;19.034;2023-04-25T05:35:44;99330.56;;;10.02;100.00
62152;BME280;48139;47.474;19.034;2023-04-25T05:38:47;99322.44;;;9.92;100.00
62152;BME280;48139;47.474;19.034;2023-04-25T05:41:51;99330.56;;;9.88;100.00
62152;BME280;48139;47.474;19.034;2023-04-25T05:44:54;99331.84;;;9.81;100.00
62152;BME280;48139;47.474;19.034;2023-04-25T05:47:57;99323.56;;;9.74;100.00
62152;BME280;48139;47.474;19.034;2023-04-25T05:50:59;99334.47;;;9.66;100.00
62152;BME280;48139;47.474;19.034;2023-04-25T05:54:06;99332.22;;;9.60;100.00
62152;BME280;48139;47.474;19.034;2023-04-25T05:57:22;99340.16;;;9.59;100.00
62152;BME280;48139;47.474;19.034;2023-04-25T06:00:24;99353.03;;;9.62;100.00
62152;BME280;48139;47.474;19.034;2023-04-25T06:03:27;99344.53;;;9.58;100.00
62152;BME280;48139;47.474;19.034;2023-04-25T06:06:31;99356.41;;;9.64;100.00
62152;BME280;48139;47.474;19.034;2023-04-25T06:09:34;99355.97;;;9.71;100.00
62152;BME280;48139;47.474;19.034;2023-04-25T06:12:37;99345.87;;;9.80;100.00
62152;BME280;48139;47.474;19.034;2023-04-25T06:15:41;99358.69;;;9.84;100.00
62152;BME280;48139;47.474;19.034;2023-04-25T06:18:43;99357.31;;;9.93;100.00
62152;BME280;48139;47.474;19.034;2023-04-25T06:21:46;99355.88;;;10.01;100.00
62152;BME280;48139;47.474;19.034;2023-04-25T06:24:49;99353.44;;;10.12;100.00
62152;BME280;48139;47.474;19.034;2023-04-25T06:27:53;99362.84;;;10.17;100.00
62152;BME280;48139;47.474;19.034;2023-04-25T06:30:56;99363.09;;;10.26;100.00
62152;BME280;48139;47.474;19.034;2023-04-25T06:33:58;99365.56;;;10.29;100.00
62152;BME280;48139;47.474;19.034;2023-04-25T06:37:02;99364.25;;;10.36;100.00
62152;BME280;48139;47.474;19.034;2023-04-25T06:40:05;99361.88;;;10.46;100.00
62152;BME280;48139;47.474;19.034;2023-04-25T06:43:10;99364.19;;;10.50;100.00
62152;BME280;48139;47.474;19.034;2023-04-25T06:46:15;99369.16;;;10.55;100.00
62152;BME280;48139;47.474;19.034;2023-04-25T06:49:18;99368.56;;;10.64;100.00
62152;BME280;48139;47.474;19.034;2023-04-25T06:52:21;99370.75;;;10.58;100.00
62152;BME280;48139;47.474;19.034;2023-04-25T06:55:25;99371.50;;;10.60;100.00
62152;BME280;48139;47.474;19.034;2023-04-25T06:58:28;99370.75;;;10.58;100.00
62152;BME280;48139;47.474;19.034;2023-04-25T07:01:33;99381.66;;;10.64;100.00
62152;BME280;48139;47.474;19.034;2023-04-25T07:04:36;99377.38;;;10.63;100.00
62152;BME280;48139;47.474;19.034;2023-04-25T07:07:39;99380.75;;;10.65;100.00
62152;BME280;48139;47.474;19.034;2023-04-25T07:10:43;99381.66;;;10.64;100.00
62152;BME280;48139;47.474;19.034;2023-04-25T07:13:46;99379.50;;;10.71;100.00
62152;BME280;48139;47.474;19.034;2023-04-25T07:16:49;99385.13;;;10.79;100.00
62152;BME280;48139;47.474;19.034;2023-04-25T07:19:51;99387.69;;;10.93;100.00
62152;BME280;48139;47.474;19.034;2023-04-25T07:22:54;99389.75;;;11.15;100.00
62152;BME280;48139;47.474;19.034;2023-04-25T07:25:58;99383.19;;;11.22;100.00
62152;BME280;48139;47.474;19.034;2023-04-25T07:29:01;99380.78;;;11.31;100.00
62152;BME280;48139;47.474;19.034;2023-04-25T07:32:03;99386.38;;;11.40;100.00
62152;BME280;48139;47.474;19.034;2023-04-25T07:35:08;99398.37;;;11.56;100.00
62152;BME280;48139;47.474;19.034;2023-04-25T07:38:11;99385.81;;;11.61;100.00
62152;BME280;48139;47.474;19.034;2023-04-25T07:41:14;99381.53;;;11.73;100.00
62152;BME280;48139;47.474;19.034;2023-04-25T07:44:17;99393.94;;;11.84;100.00
62152;BME280;48139;47.474;19.034;2023-04-25T07:47:20;99397.94;;;11.89;100.00
62152;BME280;48139;47.474;19.034;2023-04-25T07:50:22;99398.78;;;12.02;100.00
62152;BME280;48139;47.474;19.034;2023-04-25T07:53:25;99397.75;;;12.05;100.00
62152;BME280;48139;47.474;19.034;2023-04-25T07:56:28;99394.88;;;12.33;100.00
62152;BME280;48139;47.474;19.034;2023-04-25T07:59:47;99394.13;;;12.44;100.00
62152;BME280;48139;47.474;19.034;2023-04-25T08:02:50;99390.34;;;12.61;100.00
62152;BME280;48139;47.474;19.034;2023-04-25T08:05:54;99393.03;;;12.72;100.00
62152;BME280;48139;47.474;19.034;2023-04-25T08:08:58;99395.19;;;12.90;100.00
62152;BME280;48139;47.474;19.034;2023-04-25T08:12:02;99386.41;;;13.15;100.00
62152;BME280;48139;47.474;19.034;2023-04-25T08:15:06;99386.50;;;13.14;100.00
62152;BME280;48139;47.474;19.034;2023-04-25T08:18:10;99387.00;;;13.19;100.00
62152;BME280;48139;47.474;19.034;2023-04-25T08:21:13;99391.81;;;13.25;100.00
62152;BME280;48139;47.474;19.034;2023-04-25T08:24:16;99395.22;;;13.38;100.00
62152;BME280;48139;47.474;19.034;2023-04-25T08:27:19;99394.06;;;13.42;100.00
62152;BME280;48139;47.474;19.034;2023-04-25T08:30:24;99391.87;;;13.36;100.00
62152;BME280;48139;47.474;19.034;2023-04-25T08:33:27;99386.28;;;13.41;100.00
62152;BME280;48139;47.474;19.034;2023-04-25T08:36:31;99406.41;;;13.53;100.00
62152;BME280;48139;47.474;19.034;2023-04-25T08:39:41;99406.06;;;13.57;100.00
62152;BME280;48139;47.474;19.034;2023-04-25T08:42:48;99404.66;;;13.64;100.00
62152;BME280;48139;47.474;19.034;2023-04-25T08:45:53;99402.84;;;13.65;100.00
62152;BME280;48139;47.474;19.034;2023-04-25T08:49:01;99412.53;;;13.64;100.00
62152;BME280;48139;47.474;19.034;2023-04-25T08:52:04;99416.16;;;13.74;100.00
62152;BME280;48139;47.474;19.034;2023-04-25T08:55:09;99418.97;;;13.95;99.48
62152;BME280;48139;47.474;19.034;2023-04-25T08:58:14;99415.75;;;13.92;99.93
62152;BME280;48139;47.474;19.034;2023-04-25T09:01:17;99423.41;;;13.95;100.00
62152;BME280;48139;47.474;19.034;2023-04-25T09:04:21;99416.44;;;13.94;100.00
62152;BME280;48139;47.474;19.034;2023-04-25T09:07:24;99431.19;;;14.07;99.74
62152;BME280;48139;47.474;19.034;2023-04-25T09:10:29;99429.37;;;13.86;100.00
62152;BME280;48139;47.474;19.034;2023-04-25T09:13:33;99420.63;;;13.85;98.39
62152;BME280;48139;47.474;19.034;2023-04-25T09:16:57;99430.31;;;13.85;96.83
62152;BME280;48139;47.474;19.034;2023-04-25T09:20:07;99424.88;;;13.75;100.00
62152;BME280;48139;47.474;19.034;2023-04-25T09:23:10;99422.94;;;14.01;98.24
62152;BME280;48139;47.474;19.034;2023-04-25T09:26:15;99426.47;;;14.24;99.72
62152;BME280;48139;47.474;19.034;2023-04-25T09:29:29;99419.66;;;14.43;94.44
62152;BME280;48139;47.474;19.034;2023-04-25T09:32:33;99417.03;;;14.66;97.15
62152;BME280;48139;47.474;19.034;2023-04-25T09:35:38;99417.88;;;14.55;91.02
62152;BME280;48139;47.474;19.034;2023-04-25T09:38:44;99418.03;;;14.19;93.21
62152;BME280;48139;47.474;19.034;2023-04-25T09:41:47;99420.06;;;14.04;95.87
62152;BME280;48139;47.474;19.034;2023-04-25T09:44:52;99415.75;;;14.03;93.24
62152;BME280;48139;47.474;19.034;2023-04-25T09:47:55;99430.97;;;14.10;93.49
62152;BME280;48139;47.474;19.034;2023-04-25T09:51:12;99413.16;;;14.25;92.55
62152;BME280;48139;47.474;19.034;2023-04-25T09:54:18;99416.53;;;14.49;90.91
62152;BME280;48139;47.474;19.034;2023-04-25T09:57:22;99409.84;;;14.57;89.02
62152;BME280;48139;47.474;19.034;2023-04-25T10:00:26;99405.75;;;14.64;90.21
62152;BME280;48139;47.474;19.034;2023-04-25T10:03:33;99399.28;;;14.57;86.59
62152;BME280;48139;47.474;19.034;2023-04-25T10:06:40;99414.97;;;14.36;89.11
62152;BME280;48139;47.474;19.034;2023-04-25T10:09:48;99411.06;;;14.41;90.26
62152;BME280;48139;47.474;19.034;2023-04-25T10:12:53;99418.59;;;14.46;88.20
62152;BME280;48139;47.474;19.034;2023-04-25T10:15:58;99416.31;;;14.52;89.81
62152;BME280;48139;47.474;19.034;2023-04-25T10:19:03;99420.75;;;14.41;86.32
62152;BME280;48139;47.474;19.034;2023-04-25T10:25:28;99410.50;;;14.25;86.58
62152;BME280;48139;47.474;19.034;2023-04-25T10:29:01;99405.03;;;14.17;89.46
62152;BME280;48139;47.474;19.034;2023-04-25T10:32:04;99413.38;;;14.11;87.27
62152;BME280;48139;47.474;19.034;2023-04-25T10:35:30;99407.63;;;14.06;85.68
62152;BME280;48139;47.474;19.034;2023-04-25T10:38:33;99414.94;;;14.13;85.95
62152;BME280;48139;47.474;19.034;2023-04-25T10:41:52;99408.13;;;14.22;85.30
62152;BME280;48139;47.474;19.034;2023-04-25T10:45:01;99409.84;;;14.57;86.80
62152;BME280;48139;47.474;19.034;2023-04-25T10:48:24;99410.38;;;14.93;79.86
62152;BME280;48139;47.474;19.034;2023-04-25T10:51:31;99424.53;;;15.04;72.61
62152;BME280;48139;47.474;19.034;2023-04-25T10:54:56;99409.06;;;14.99;74.01
62152;BME280;48139;47.474;19.034;2023-04-25T10:58:00;99411.03;;;14.86;71.89
62152;BME280;48139;47.474;19.034;2023-04-25T11:01:03;99429.72;;;14.83;74.45
62152;BME280;48139;47.474;19.034;2023-04-25T11:04:06;99428.31;;;14.68;71.90
62152;BME280;48139;47.474;19.034;2023-04-25T11:10:12;99436.19;;;14.79;69.18
62152;BME280;48139;47.474;19.034;2023-04-25T11:13:15;99423.69;;;15.03;69.70
62152;BME280;48139;47.474;19.034;2023-04-25T11:16:18;99415.66;;;15.37;69.58
62152;BME280;48139;47.474;19.034;2023-04-25T11:19:29;99439.25;;;15.17;64.18
62152;BME280;48139;47.474;19.034;2023-04-25T11:22:33;99431.38;;;15.38;60.58
62152;BME280;48139;47.474;19.034;2023-04-25T11:25:36;99432.34;;;15.37;62.80
62152;BME280;48139;47.474;19.034;2023-04-25T11:28:48;99438.19;;;15.52;60.32
62152;BME280;48139;47.474;19.034;2023-04-25T11:31:55;99433.38;;;15.57;61.33
62152;BME280;48139;47.474;19.034;2023-04-25T11:35:00;99433.44;;;15.78;61.12
62152;BME280;48139;47.474;19.034;2023-04-25T11:38:04;99448.53;;;15.55;59.22
62152;BME280;48139;47.474;19.034;2023-04-25T11:41:06;99437.72;;;15.47;58.18
62152;BME280;48139;47.474;19.034;2023-04-25T11:44:09;99439.09;;;15.30;60.88
62152;BME280;48139;47.474;19.034;2023-04-25T11:47:12;99445.72;;;15.13;60.02
62152;BME280;48139;47.474;19.034;2023-04-25T11:50:14;99437.97;;;15.01;61.86
62152;BME280;48139;47.474;19.034;2023-04-25T11:53:18;99450.44;;;14.87;63.50
62152;BME280;48139;47.474;19.034;2023-04-25T11:56:20;99451.25;;;14.99;61.79
62152;BME280;48139;47.474;19.034;2023-04-25T11:59:24;99462.91;;;14.97;62.91
62152;BME280;48139;47.474;19.034;2023-04-25T12:02:27;99454.97;;;15.08;60.42
62152;BME280;48139;47.474;19.034;2023-04-25T12:05:31;99467.78;;;15.23;65.61
62152;BME280;48139;47.474;19.034;2023-04-25T12:08:36;99470.00;;;15.39;60.08
62152;BME280;48139;47.474;19.034;2023-04-25T12:11:52;99476.75;;;15.32;60.05
62152;BME280;48139;47.474;19.034;2023-04-25T12:14:55;99465.13;;;15.78;56.68
62152;BME280;48139;47.474;19.034;2023-04-25T12:17:57;99470.09;;;16.12;53.15
62152;BME280;48139;47.474;19.034;2023-04-25T12:21:00;99472.50;;;16.36;54.22
62152;BME280;48139;47.474;19.034;2023-04-25T12:24:22;99463.94;;;16.53;55.42
62152;BME280;48139;47.474;19.034;2023-04-25T12:27:30;99469.31;;;16.42;49.93
62152;BME280;48139;47.474;19.034;2023-04-25T12:30:52;99464.06;;;16.52;50.60
62152;BME280;48139;47.474;19.034;2023-04-25T12:33:56;99447.66;;;16.79;50.29
62152;BME280;48139;47.474;19.034;2023-04-25T12:36:59;99461.03;;;17.17;51.70
62152;BME280;48139;47.474;19.034;2023-04-25T12:40:02;99445.28;;;17.16;50.13
62152;BME280;48139;47.474;19.034;2023-04-25T12:43:08;99447.25;;;16.83;45.09
62152;BME280;48139;47.474;19.034;2023-04-25T12:46:10;99456.25;;;16.71;45.69
62152;BME280;48139;47.474;19.034;2023-04-25T12:49:13;99440.16;;;16.53;46.85
62152;BME280;48139;47.474;19.034;2023-04-25T12:52:20;99430.53;;;16.52;47.53
62152;BME280;48139;47.474;19.034;2023-04-25T12:55:23;99436.22;;;16.48;47.58
62152;BME280;48139;47.474;19.034;2023-04-25T12:58:25;99430.34;;;16.44;46.78
62152;BME280;48139;47.474;19.034;2023-04-25T13:01:29;99440.12;;;16.23;45.81
62152;BME280;48139;47.474;19.034;2023-04-25T13:04:32;99436.84;;;16.10;45.80
62152;BME280;48139;47.474;19.034;2023-04-25T13:07:35;99431.75;;;16.18;47.24
62152;BME280;48139;47.474;19.034;2023-04-25T13:10:37;99433.62;;;16.27;47.17
62152;BME280;48139;47.474;19.034;2023-04-25T13:13:42;99432.25;;;16.33;47.50
62152;BME280;48139;47.474;19.034;2023-04-25T13:16:44;99438.50;;;16.32;45.73
62152;BME280;48139;47.474;19.034;2023-04-25T13:19:48;99426.31;;;16.20;47.36
62152;BME280;48139;47.474;19.034;2023-04-25T13:22:50;99436.87;;;16.40;46.98
62152;BME280;48139;47.474;19.034;2023-04-25T13:25:54;99430.19;;;16.36;43.28
62152;BME280;48139;47.474;19.034;2023-04-25T13:28:57;99424.31;;;16.33;44.83
62152;BME280;48139;47.474;19.034;2023-04-25T13:32:00;99424.75;;;16.38;45.50
62152;BME280;48139;47.474;19.034;2023-04-25T13:35:04;99418.59;;;16.58;44.89
62152;BME280;48139;47.474;19.034;2023-04-25T13:38:11;99411.12;;;16.63;44.73
62152;BME280;48139;47.474;19.034;2023-04-25T13:41:13;99407.72;;;16.51;42.95
62152;BME280;48139;47.474;19.034;2023-04-25T13:44:20;99401.06;;;16.57;42.95
62152;BME280;48139;47.474;19.034;2023-04-25T13:47:23;99404.47;;;16.69;43.61
62152;BME280;48139;47.474;19.034;2023-04-25T13:50:26;99403.66;;;16.78;43.78
62152;BME280;48139;47.474;19.034;2023-04-25T13:53:29;99404.75;;;16.66;44.22
62152;BME280;48139;47.474;19.034;2023-04-25T13:56:33;99403.78;;;16.67;46.02
62152;BME280;48139;47.474;19.034;2023-04-25T13:59:37;99401.03;;;16.78;44.83
62152;BME280;48139;47.474;19.034;2023-04-25T14:02:40;99392.97;;;16.79;44.45
62152;BME280;48139;47.474;19.034;2023-04-25T14:05:43;99397.25;;;16.80;43.90
62152;BME280;48139;47.474;19.034;2023-04-25T14:08:45;99403.97;;;16.84;43.20
62152;BME280;48139;47.474;19.034;2023-04-25T14:11:48;99400.63;;;16.82;41.61
62152;BME280;48139;47.474;19.034;2023-04-25T14:14:50;99399.03;;;16.70;42.07
62152;BME280;48139;47.474;19.034;2023-04-25T14:17:56;99398.03;;;16.62;42.66
62152;BME280;48139;47.474;19.034;2023-04-25T14:20:59;99407.16;;;16.48;41.49
62152;BME280;48139;47.474;19.034;2023-04-25T14:24:02;99404.63;;;16.46;41.24
62152;BME280;48139;47.474;19.034;2023-04-25T14:27:05;99404.53;;;16.58;42.22
62152;BME280;48139;47.474;19.034;2023-04-25T14:30:08;99392.56;;;16.53;41.67
62152;BME280;48139;47.474;19.034;2023-04-25T14:33:11;99417.03;;;16.55;42.21
62152;BME280;48139;47.474;19.034;2023-04-25T14:36:15;99405.66;;;16.55;41.00
62152;BME280;48139;47.474;19.034;2023-04-25T14:39:18;99399.37;;;16.56;40.66
62152;BME280;48139;47.474;19.034;2023-04-25T14:42:21;99401.06;;;16.57;40.53
62152;BME280;48139;47.474;19.034;2023-04-25T14:45:23;99397.94;;;16.73;39.94
62152;BME280;48139;47.474;19.034;2023-04-25T14:48:27;99404.03;;;16.64;39.69
62152;BME280;48139;47.474;19.034;2023-04-25T14:51:29;99406.13;;;16.60;41.00
62152;BME280;48139;47.474;19.034;2023-04-25T14:54:33;99408.03;;;16.58;40.00
62152;BME280;48139;47.474;19.034;2023-04-25T14:57:36;99404.19;;;16.41;39.21
62152;BME280;48139;47.474;19.034;2023-04-25T15:00:39;99404.13;;;16.32;40.44
62152;BME280;48139;47.474;19.034;2023-04-25T15:03:41;99398.41;;;16.27;41.03
62152;BME280;48139;47.474;19.034;2023-04-25T15:06:45;99406.53;;;16.35;40.50
62152;BME280;48139;47.474;19.034;2023-04-25T15:09:47;99410.84;;;16.36;40.72
62152;BME280;48139;47.474;19.034;2023-04-25T15:12:51;99404.88;;;16.13;39.99
62152;BME280;48139;47.474;19.034;2023-04-25T15:15:55;99418.72;;;16.26;41.02
62152;BME280;48139;47.474;19.034;2023-04-25T15:18:58;99416.53;;;16.62;39.95
62152;BME280;48139;47.474;19.034;2023-04-25T15:22:01;99407.09;;;16.38;38.70
62152;BME280;48139;47.474;19.034;2023-04-25T15:25:04;99415.91;;;15.97;40.64
62152;BME280;48139;47.474;19.034;2023-04-25T15:28:06;99413.66;;;15.72;41.77
62152;BME280;48139;47.474;19.034;2023-04-25T15:31:12;99411.56;;;15.44;42.34
62152;BME280;48139;47.474;19.034;2023-04-25T15:34:16;99422.94;;;15.23;42.88
62152;BME280;48139;47.474;19.034;2023-04-25T15:37:19;99420.69;;;15.08;44.45
62152;BME280;48139;47.474;19.034;2023-04-25T15:40:21;99422.59;;;15.06;44.84
62152;BME280;48139;47.474;19.034;2023-04-25T15:43:24;99423.47;;;14.95;46.72
62152;BME280;48139;47.474;19.034;2023-04-25T15:46:27;99418.69;;;14.89;46.47
62152;BME280;48139;47.474;19.034;2023-04-25T15:49:30;99421.69;;;14.84;46.52
